sensor_id;sensor_type;location;lat;lon;timestamp;P1;durP1;ratioP1;P2;durP2;ratioP2
56075;SDS011;41951;49.022;12.066;2022-10-14T00:01:25;35.83;;;21.02;;
56075;SDS011;41951;49.022;12.066;2022-10-14T00:03:52;36.40;;;21.52;;
56075;SDS011;41951;49.022;12.066;2022-10-14T00:06:23;30.20;;;19.83;;
56075;SDS011;41951;49.022;12.066;2022-10-14T00:08:54;29.67;;;19.25;;
56075;SDS011;41951;49.022;12.066;2022-10-14T00:11:24;27.35;;;18.50;;
56075;SDS011;41951;49.022;12.066;2022-10-14T00:13:55;31.83;;;18.83;;
56075;SDS011;41951;49.022;12.066;2022-10-14T00:16:24;27.92;;;19.00;;
56075;SDS011;41951;49.022;12.066;2022-10-14T00:18:51;33.08;;;19.13;;
56075;SDS011;41951;49.022;12.066;2022-10-14T00:21:17;30.92;;;19.13;;
56075;SDS011;41951;49.022;12.066;2022-10-14T00:23:43;28.95;;;18.70;;
56075;SDS011;41951;49.022;12.066;2022-10-14T00:26:16;32.42;;;19.33;;
56075;SDS011;41951;49.022;12.066;2022-10-14T00:28:47;25.58;;;18.08;;
56075;SDS011;41951;49.022;12.066;2022-10-14T00:31:13;30.35;;;18.75;;
56075;SDS011;41951;49.022;12.066;2022-10-14T00:33:39;33.67;;;19.45;;
56075;SDS011;41951;49.022;12.066;2022-10-14T00:36:05;35.25;;;19.00;;
56075;SDS011;41951;49.022;12.066;2022-10-14T00:38:31;29.13;;;18.73;;
56075;SDS011;41951;49.022;12.066;2022-10-14T00:40:57;29.42;;;19.75;;
56075;SDS011;41951;49.022;12.066;2022-10-14T00:43:23;31.75;;;19.63;;
56075;SDS011;41951;49.022;12.066;2022-10-14T00:45:50;31.35;;;18.55;;
56075;SDS011;41951;49.022;12.066;2022-10-14T00:48:17;32.85;;;20.13;;
56075;SDS011;41951;49.022;12.066;2022-10-14T00:50:45;33.03;;;20.00;;
56075;SDS011;41951;49.022;12.066;2022-10-14T00:53:13;30.35;;;19.58;;
56075;SDS011;41951;49.022;12.066;2022-10-14T00:55:39;31.02;;;19.95;;
56075;SDS011;41951;49.022;12.066;2022-10-14T00:58:06;29.75;;;18.92;;
56075;SDS011;41951;49.022;12.066;2022-10-14T01:00:33;29.63;;;19.17;;
56075;SDS011;41951;49.022;12.066;2022-10-14T01:02:59;30.10;;;20.20;;
56075;SDS011;41951;49.022;12.066;2022-10-14T01:05:31;32.95;;;20.20;;
56075;SDS011;41951;49.022;12.066;2022-10-14T01:08:09;35.25;;;20.48;;
56075;SDS011;41951;49.022;12.066;2022-10-14T01:10:55;33.47;;;20.13;;
56075;SDS011;41951;49.022;12.066;2022-10-14T01:13:32;32.65;;;19.98;;
56075;SDS011;41951;49.022;12.066;2022-10-14T01:32:15;30.33;;;18.95;;
56075;SDS011;41951;49.022;12.066;2022-10-14T01:38:09;35.25;;;20.70;;
56075;SDS011;41951;49.022;12.066;2022-10-14T01:40:56;38.83;;;21.33;;
56075;SDS011;41951;49.022;12.066;2022-10-14T01:43:34;30.27;;;20.10;;
56075;SDS011;41951;49.022;12.066;2022-10-14T01:46:02;33.17;;;20.08;;
56075;SDS011;41951;49.022;12.066;2022-10-14T01:48:31;35.40;;;22.08;;
56075;SDS011;41951;49.022;12.066;2022-10-14T01:53:30;32.03;;;20.00;;
56075;SDS011;41951;49.022;12.066;2022-10-14T01:55:59;29.23;;;20.23;;
56075;SDS011;41951;49.022;12.066;2022-10-14T01:58:27;36.80;;;20.67;;
56075;SDS011;41951;49.022;12.066;2022-10-14T02:00:55;32.17;;;20.67;;
56075;SDS011;41951;49.022;12.066;2022-10-14T02:03:21;32.80;;;20.52;;
56075;SDS011;41951;49.022;12.066;2022-10-14T02:05:52;32.80;;;21.25;;
56075;SDS011;41951;49.022;12.066;2022-10-14T02:08:41;37.03;;;22.60;;
56075;SDS011;41951;49.022;12.066;2022-10-14T02:11:16;29.00;;;19.77;;
56075;SDS011;41951;49.022;12.066;2022-10-14T02:19:24;39.67;;;21.73;;
56075;SDS011;41951;49.022;12.066;2022-10-14T02:22:19;35.92;;;21.58;;
56075;SDS011;41951;49.022;12.066;2022-10-14T02:24:58;30.67;;;19.80;;
56075;SDS011;41951;49.022;12.066;2022-10-14T02:27:27;31.60;;;22.35;;
56075;SDS011;41951;49.022;12.066;2022-10-14T02:29:55;33.78;;;22.42;;
56075;SDS011;41951;49.022;12.066;2022-10-14T02:32:23;33.60;;;19.92;;
56075;SDS011;41951;49.022;12.066;2022-10-14T02:34:51;33.15;;;20.45;;
56075;SDS011;41951;49.022;12.066;2022-10-14T02:37:18;34.67;;;20.85;;
56075;SDS011;41951;49.022;12.066;2022-10-14T02:40:08;35.20;;;22.13;;
56075;SDS011;41951;49.022;12.066;2022-10-14T02:42:37;36.47;;;22.05;;
56075;SDS011;41951;49.022;12.066;2022-10-14T02:45:03;32.05;;;21.50;;
56075;SDS011;41951;49.022;12.066;2022-10-14T02:47:30;31.65;;;20.23;;
56075;SDS011;41951;49.022;12.066;2022-10-14T02:49:55;36.78;;;22.23;;
56075;SDS011;41951;49.022;12.066;2022-10-14T02:52:21;41.03;;;21.00;;
56075;SDS011;41951;49.022;12.066;2022-10-14T02:54:46;34.53;;;21.65;;
56075;SDS011;41951;49.022;12.066;2022-10-14T02:57:12;35.80;;;21.48;;
56075;SDS011;41951;49.022;12.066;2022-10-14T02:59:37;34.00;;;21.17;;
56075;SDS011;41951;49.022;12.066;2022-10-14T03:02:06;36.08;;;22.85;;
56075;SDS011;41951;49.022;12.066;2022-10-14T03:04:33;35.05;;;21.75;;
56075;SDS011;41951;49.022;12.066;2022-10-14T03:06:58;34.58;;;21.88;;
56075;SDS011;41951;49.022;12.066;2022-10-14T03:09:24;31.65;;;21.25;;
56075;SDS011;41951;49.022;12.066;2022-10-14T03:11:50;36.40;;;22.52;;
56075;SDS011;41951;49.022;12.066;2022-10-14T03:14:15;37.75;;;23.48;;
56075;SDS011;41951;49.022;12.066;2022-10-14T03:16:41;35.15;;;21.65;;
56075;SDS011;41951;49.022;12.066;2022-10-14T03:19:07;33.05;;;21.38;;
56075;SDS011;41951;49.022;12.066;2022-10-14T03:21:32;38.28;;;21.90;;
56075;SDS011;41951;49.022;12.066;2022-10-14T03:23:58;35.83;;;22.33;;
56075;SDS011;41951;49.022;12.066;2022-10-14T03:26:25;35.05;;;21.25;;
56075;SDS011;41951;49.022;12.066;2022-10-14T03:28:51;31.90;;;21.17;;
56075;SDS011;41951;49.022;12.066;2022-10-14T03:31:17;36.08;;;22.90;;
56075;SDS011;41951;49.022;12.066;2022-10-14T03:33:43;34.63;;;21.83;;
56075;SDS011;41951;49.022;12.066;2022-10-14T03:36:08;37.90;;;22.05;;
56075;SDS011;41951;49.022;12.066;2022-10-14T03:38:34;39.22;;;23.17;;
56075;SDS011;41951;49.022;12.066;2022-10-14T03:41:00;35.03;;;21.15;;
56075;SDS011;41951;49.022;12.066;2022-10-14T03:43:25;38.40;;;23.13;;
56075;SDS011;41951;49.022;12.066;2022-10-14T03:45:52;37.28;;;22.42;;
56075;SDS011;41951;49.022;12.066;2022-10-14T03:48:18;40.22;;;22.73;;
56075;SDS011;41951;49.022;12.066;2022-10-14T03:50:43;35.15;;;22.05;;
56075;SDS011;41951;49.022;12.066;2022-10-14T03:53:10;37.08;;;23.60;;
56075;SDS011;41951;49.022;12.066;2022-10-14T03:55:36;37.92;;;22.27;;
56075;SDS011;41951;49.022;12.066;2022-10-14T03:58:02;35.67;;;21.25;;
56075;SDS011;41951;49.022;12.066;2022-10-14T04:00:28;34.08;;;21.88;;
56075;SDS011;41951;49.022;12.066;2022-10-14T04:02:53;39.40;;;22.60;;
56075;SDS011;41951;49.022;12.066;2022-10-14T04:05:20;44.83;;;26.05;;
56075;SDS011;41951;49.022;12.066;2022-10-14T04:07:46;37.35;;;22.63;;
56075;SDS011;41951;49.022;12.066;2022-10-14T04:10:11;40.97;;;23.05;;
56075;SDS011;41951;49.022;12.066;2022-10-14T04:12:37;42.40;;;23.92;;
56075;SDS011;41951;49.022;12.066;2022-10-14T04:15:04;44.47;;;23.13;;
56075;SDS011;41951;49.022;12.066;2022-10-14T04:17:33;43.60;;;23.70;;
56075;SDS011;41951;49.022;12.066;2022-10-14T04:19:59;47.47;;;23.42;;
56075;SDS011;41951;49.022;12.066;2022-10-14T04:22:24;47.17;;;23.40;;
56075;SDS011;41951;49.022;12.066;2022-10-14T04:24:50;46.45;;;23.55;;
56075;SDS011;41951;49.022;12.066;2022-10-14T04:27:16;44.90;;;23.70;;
56075;SDS011;41951;49.022;12.066;2022-10-14T04:29:42;44.55;;;24.65;;
56075;SDS011;41951;49.022;12.066;2022-10-14T04:32:07;48.28;;;23.65;;
56075;SDS011;41951;49.022;12.066;2022-10-14T04:34:33;50.05;;;28.17;;
56075;SDS011;41951;49.022;12.066;2022-10-14T04:36:59;51.42;;;27.02;;
56075;SDS011;41951;49.022;12.066;2022-10-14T04:39:24;57.10;;;30.70;;
56075;SDS011;41951;49.022;12.066;2022-10-14T04:41:50;49.33;;;26.23;;
56075;SDS011;41951;49.022;12.066;2022-10-14T04:44:16;39.92;;;23.25;;
56075;SDS011;41951;49.022;12.066;2022-10-14T04:46:41;45.13;;;23.95;;
56075;SDS011;41951;49.022;12.066;2022-10-14T04:49:07;40.95;;;23.25;;
56075;SDS011;41951;49.022;12.066;2022-10-14T04:51:33;37.80;;;21.40;;
56075;SDS011;41951;49.022;12.066;2022-10-14T04:53:59;45.33;;;22.48;;
56075;SDS011;41951;49.022;12.066;2022-10-14T04:56:25;42.15;;;21.73;;
56075;SDS011;41951;49.022;12.066;2022-10-14T04:58:50;42.38;;;21.45;;
56075;SDS011;41951;49.022;12.066;2022-10-14T05:01:16;41.90;;;22.83;;
56075;SDS011;41951;49.022;12.066;2022-10-14T05:03:42;38.22;;;21.83;;
56075;SDS011;41951;49.022;12.066;2022-10-14T05:06:08;39.95;;;20.90;;
56075;SDS011;41951;49.022;12.066;2022-10-14T05:08:34;43.97;;;21.60;;
56075;SDS011;41951;49.022;12.066;2022-10-14T05:11:00;40.20;;;21.70;;
56075;SDS011;41951;49.022;12.066;2022-10-14T05:13:26;42.95;;;22.35;;
56075;SDS011;41951;49.022;12.066;2022-10-14T05:15:53;41.10;;;22.85;;
56075;SDS011;41951;49.022;12.066;2022-10-14T05:18:18;37.50;;;21.88;;
56075;SDS011;41951;49.022;12.066;2022-10-14T05:20:44;44.28;;;22.95;;
56075;SDS011;41951;49.022;12.066;2022-10-14T05:23:10;41.45;;;23.17;;
56075;SDS011;41951;49.022;12.066;2022-10-14T05:25:35;43.50;;;22.23;;
56075;SDS011;41951;49.022;12.066;2022-10-14T05:28:01;44.33;;;23.13;;
56075;SDS011;41951;49.022;12.066;2022-10-14T05:30:27;40.63;;;23.17;;
56075;SDS011;41951;49.022;12.066;2022-10-14T05:32:52;39.88;;;21.77;;
56075;SDS011;41951;49.022;12.066;2022-10-14T05:35:18;40.67;;;23.33;;
56075;SDS011;41951;49.022;12.066;2022-10-14T05:37:44;43.45;;;22.75;;
56075;SDS011;41951;49.022;12.066;2022-10-14T05:40:10;39.80;;;21.60;;
56075;SDS011;41951;49.022;12.066;2022-10-14T05:42:36;40.45;;;22.90;;
56075;SDS011;41951;49.022;12.066;2022-10-14T05:45:03;44.85;;;24.10;;
56075;SDS011;41951;49.022;12.066;2022-10-14T05:47:29;41.08;;;22.88;;
56075;SDS011;41951;49.022;12.066;2022-10-14T05:49:54;41.17;;;24.20;;
56075;SDS011;41951;49.022;12.066;2022-10-14T05:52:20;45.78;;;25.33;;
56075;SDS011;41951;49.022;12.066;2022-10-14T05:54:46;47.95;;;24.45;;
56075;SDS011;41951;49.022;12.066;2022-10-14T05:57:11;46.97;;;25.75;;
56075;SDS011;41951;49.022;12.066;2022-10-14T05:59:37;41.90;;;23.35;;
56075;SDS011;41951;49.022;12.066;2022-10-14T06:02:03;47.97;;;23.27;;
56075;SDS011;41951;49.022;12.066;2022-10-14T06:04:28;51.80;;;25.48;;
56075;SDS011;41951;49.022;12.066;2022-10-14T06:06:54;43.97;;;24.30;;
56075;SDS011;41951;49.022;12.066;2022-10-14T06:09:19;52.28;;;26.77;;
56075;SDS011;41951;49.022;12.066;2022-10-14T06:11:45;55.50;;;26.83;;
56075;SDS011;41951;49.022;12.066;2022-10-14T06:14:11;52.10;;;26.83;;
56075;SDS011;41951;49.022;12.066;2022-10-14T06:16:37;51.35;;;25.98;;
56075;SDS011;41951;49.022;12.066;2022-10-14T06:19:03;49.80;;;24.95;;
56075;SDS011;41951;49.022;12.066;2022-10-14T06:21:29;47.95;;;24.23;;
56075;SDS011;41951;49.022;12.066;2022-10-14T06:23:54;49.40;;;24.00;;
56075;SDS011;41951;49.022;12.066;2022-10-14T06:26:20;49.20;;;23.23;;
56075;SDS011;41951;49.022;12.066;2022-10-14T06:28:45;43.63;;;22.65;;
56075;SDS011;41951;49.022;12.066;2022-10-14T06:31:11;42.47;;;22.90;;
56075;SDS011;41951;49.022;12.066;2022-10-14T06:33:37;46.65;;;24.33;;
56075;SDS011;41951;49.022;12.066;2022-10-14T06:36:03;49.17;;;23.35;;
56075;SDS011;41951;49.022;12.066;2022-10-14T06:38:30;50.53;;;24.77;;
56075;SDS011;41951;49.022;12.066;2022-10-14T06:40:55;45.10;;;22.60;;
56075;SDS011;41951;49.022;12.066;2022-10-14T06:43:21;46.80;;;22.17;;
56075;SDS011;41951;49.022;12.066;2022-10-14T06:45:47;43.50;;;23.23;;
56075;SDS011;41951;49.022;12.066;2022-10-14T06:48:13;44.58;;;23.95;;
56075;SDS011;41951;49.022;12.066;2022-10-14T06:50:40;51.83;;;23.98;;
56075;SDS011;41951;49.022;12.066;2022-10-14T06:53:05;46.78;;;24.33;;
56075;SDS011;41951;49.022;12.066;2022-10-14T06:55:31;85.43;;;45.40;;
56075;SDS011;41951;49.022;12.066;2022-10-14T06:57:57;63.00;;;35.45;;
56075;SDS011;41951;49.022;12.066;2022-10-14T07:00:23;55.40;;;28.27;;
56075;SDS011;41951;49.022;12.066;2022-10-14T07:02:49;65.43;;;26.58;;
56075;SDS011;41951;49.022;12.066;2022-10-14T07:05:14;48.75;;;23.58;;
56075;SDS011;41951;49.022;12.066;2022-10-14T07:07:40;50.40;;;23.27;;
56075;SDS011;41951;49.022;12.066;2022-10-14T07:10:06;43.08;;;23.30;;
56075;SDS011;41951;49.022;12.066;2022-10-14T07:12:32;47.55;;;23.55;;
56075;SDS011;41951;49.022;12.066;2022-10-14T07:14:57;45.30;;;23.20;;
56075;SDS011;41951;49.022;12.066;2022-10-14T07:17:23;44.17;;;24.38;;
56075;SDS011;41951;49.022;12.066;2022-10-14T07:19:48;51.80;;;24.33;;
56075;SDS011;41951;49.022;12.066;2022-10-14T07:22:14;45.38;;;24.33;;
56075;SDS011;41951;49.022;12.066;2022-10-14T07:24:41;50.78;;;24.63;;
56075;SDS011;41951;49.022;12.066;2022-10-14T07:27:07;46.20;;;23.40;;
56075;SDS011;41951;49.022;12.066;2022-10-14T07:29:34;52.80;;;26.98;;
56075;SDS011;41951;49.022;12.066;2022-10-14T07:31:59;49.58;;;24.92;;
56075;SDS011;41951;49.022;12.066;2022-10-14T07:34:25;52.83;;;25.67;;
56075;SDS011;41951;49.022;12.066;2022-10-14T07:36:51;46.13;;;25.45;;
56075;SDS011;41951;49.022;12.066;2022-10-14T07:39:16;51.67;;;26.02;;
56075;SDS011;41951;49.022;12.066;2022-10-14T07:41:42;40.35;;;21.20;;
56075;SDS011;41951;49.022;12.066;2022-10-14T07:44:09;41.40;;;23.50;;
56075;SDS011;41951;49.022;12.066;2022-10-14T07:46:38;50.67;;;24.00;;
56075;SDS011;41951;49.022;12.066;2022-10-14T07:49:08;40.65;;;22.70;;
56075;SDS011;41951;49.022;12.066;2022-10-14T07:51:36;45.30;;;23.50;;
56075;SDS011;41951;49.022;12.066;2022-10-14T07:54:03;50.75;;;23.13;;
56075;SDS011;41951;49.022;12.066;2022-10-14T07:56:33;42.58;;;22.95;;
56075;SDS011;41951;49.022;12.066;2022-10-14T07:59:00;42.95;;;23.40;;
56075;SDS011;41951;49.022;12.066;2022-10-14T08:01:26;46.63;;;25.58;;
56075;SDS011;41951;49.022;12.066;2022-10-14T08:03:52;47.90;;;24.80;;
56075;SDS011;41951;49.022;12.066;2022-10-14T08:06:17;46.25;;;25.27;;
56075;SDS011;41951;49.022;12.066;2022-10-14T08:08:43;49.42;;;25.40;;
56075;SDS011;41951;49.022;12.066;2022-10-14T08:11:10;43.05;;;22.63;;
56075;SDS011;41951;49.022;12.066;2022-10-14T08:13:39;42.63;;;22.83;;
56075;SDS011;41951;49.022;12.066;2022-10-14T08:16:17;48.53;;;24.70;;
56075;SDS011;41951;49.022;12.066;2022-10-14T08:18:48;55.17;;;24.65;;
56075;SDS011;41951;49.022;12.066;2022-10-14T08:21:15;50.15;;;24.77;;
56075;SDS011;41951;49.022;12.066;2022-10-14T08:23:41;50.08;;;25.50;;
56075;SDS011;41951;49.022;12.066;2022-10-14T08:26:47;45.58;;;24.23;;
56075;SDS011;41951;49.022;12.066;2022-10-14T08:29:02;47.95;;;22.65;;
56075;SDS011;41951;49.022;12.066;2022-10-14T08:31:34;46.45;;;23.13;;
56075;SDS011;41951;49.022;12.066;2022-10-14T08:34:00;40.90;;;22.15;;
56075;SDS011;41951;49.022;12.066;2022-10-14T08:36:25;45.67;;;23.13;;
56075;SDS011;41951;49.022;12.066;2022-10-14T08:38:52;43.60;;;21.83;;
56075;SDS011;41951;49.022;12.066;2022-10-14T08:46:41;44.15;;;22.60;;
56075;SDS011;41951;49.022;12.066;2022-10-14T08:54:25;44.30;;;24.30;;
56075;SDS011;41951;49.022;12.066;2022-10-14T08:57:01;46.17;;;24.23;;
56075;SDS011;41951;49.022;12.066;2022-10-14T08:59:28;41.45;;;22.38;;
56075;SDS011;41951;49.022;12.066;2022-10-14T09:01:56;48.97;;;23.35;;
56075;SDS011;41951;49.022;12.066;2022-10-14T09:04:25;42.05;;;23.67;;
56075;SDS011;41951;49.022;12.066;2022-10-14T09:06:51;43.03;;;23.48;;
56075;SDS011;41951;49.022;12.066;2022-10-14T09:11:56;50.72;;;23.67;;
56075;SDS011;41951;49.022;12.066;2022-10-14T09:14:25;44.85;;;23.33;;
56075;SDS011;41951;49.022;12.066;2022-10-14T09:16:58;49.78;;;23.10;;
56075;SDS011;41951;49.022;12.066;2022-10-14T09:19:40;45.92;;;24.35;;
56075;SDS011;41951;49.022;12.066;2022-10-14T09:22:13;48.13;;;23.48;;
56075;SDS011;41951;49.022;12.066;2022-10-14T09:24:39;46.80;;;23.70;;
56075;SDS011;41951;49.022;12.066;2022-10-14T09:27:09;47.20;;;23.17;;
56075;SDS011;41951;49.022;12.066;2022-10-14T09:29:49;43.47;;;25.50;;
56075;SDS011;41951;49.022;12.066;2022-10-14T09:32:27;47.63;;;24.35;;
56075;SDS011;41951;49.022;12.066;2022-10-14T09:34:57;43.97;;;23.30;;
56075;SDS011;41951;49.022;12.066;2022-10-14T09:37:25;45.95;;;24.55;;
56075;SDS011;41951;49.022;12.066;2022-10-14T09:40:00;46.40;;;23.55;;
56075;SDS011;41951;49.022;12.066;2022-10-14T09:42:43;39.50;;;22.08;;
56075;SDS011;41951;49.022;12.066;2022-10-14T09:45:16;43.63;;;25.13;;
56075;SDS011;41951;49.022;12.066;2022-10-14T09:47:45;41.75;;;22.05;;
56075;SDS011;41951;49.022;12.066;2022-10-14T09:50:22;36.90;;;22.02;;
56075;SDS011;41951;49.022;12.066;2022-10-14T09:52:59;39.13;;;22.50;;
56075;SDS011;41951;49.022;12.066;2022-10-14T09:55:39;35.58;;;21.27;;
56075;SDS011;41951;49.022;12.066;2022-10-14T09:58:13;32.90;;;19.10;;
56075;SDS011;41951;49.022;12.066;2022-10-14T10:00:42;39.63;;;20.50;;
56075;SDS011;41951;49.022;12.066;2022-10-14T10:03:22;40.08;;;19.30;;
56075;SDS011;41951;49.022;12.066;2022-10-14T10:06:01;38.20;;;21.13;;
56075;SDS011;41951;49.022;12.066;2022-10-14T10:08:32;36.67;;;20.88;;
56075;SDS011;41951;49.022;12.066;2022-10-14T10:11:04;36.20;;;21.00;;
56075;SDS011;41951;49.022;12.066;2022-10-14T10:13:35;36.00;;;22.10;;
56075;SDS011;41951;49.022;12.066;2022-10-14T10:16:04;38.33;;;21.27;;
56075;SDS011;41951;49.022;12.066;2022-10-14T10:18:41;32.40;;;19.13;;
56075;SDS011;41951;49.022;12.066;2022-10-14T10:21:14;29.50;;;18.90;;
56075;SDS011;41951;49.022;12.066;2022-10-14T10:26:25;31.95;;;18.48;;
56075;SDS011;41951;49.022;12.066;2022-10-14T10:28:55;26.47;;;18.17;;
56075;SDS011;41951;49.022;12.066;2022-10-14T10:36:52;31.58;;;17.90;;
56075;SDS011;41951;49.022;12.066;2022-10-14T10:45:35;27.30;;;16.27;;
56075;SDS011;41951;49.022;12.066;2022-10-14T10:50:50;24.33;;;14.70;;
56075;SDS011;41951;49.022;12.066;2022-10-14T10:53:44;23.83;;;14.10;;
56075;SDS011;41951;49.022;12.066;2022-10-14T10:56:47;24.17;;;14.60;;
56075;SDS011;41951;49.022;12.066;2022-10-14T10:59:25;23.90;;;14.98;;
56075;SDS011;41951;49.022;12.066;2022-10-14T11:04:45;25.98;;;15.95;;
56075;SDS011;41951;49.022;12.066;2022-10-14T11:12:45;31.17;;;17.90;;
56075;SDS011;41951;49.022;12.066;2022-10-14T11:15:24;28.15;;;18.17;;
56075;SDS011;41951;49.022;12.066;2022-10-14T11:24:56;30.45;;;17.60;;
56075;SDS011;41951;49.022;12.066;2022-10-14T11:27:15;23.23;;;16.20;;
56075;SDS011;41951;49.022;12.066;2022-10-14T11:30:02;23.30;;;17.10;;
56075;SDS011;41951;49.022;12.066;2022-10-14T11:37:42;25.38;;;16.35;;
56075;SDS011;41951;49.022;12.066;2022-10-14T11:47:40;25.45;;;16.85;;
56075;SDS011;41951;49.022;12.066;2022-10-14T11:50:11;30.33;;;18.08;;
56075;SDS011;41951;49.022;12.066;2022-10-14T11:52:43;29.70;;;17.65;;
56075;SDS011;41951;49.022;12.066;2022-10-14T11:55:15;28.25;;;16.90;;
56075;SDS011;41951;49.022;12.066;2022-10-14T11:57:47;23.40;;;15.88;;
56075;SDS011;41951;49.022;12.066;2022-10-14T12:00:18;23.95;;;15.15;;
56075;SDS011;41951;49.022;12.066;2022-10-14T12:10:56;22.25;;;14.07;;
56075;SDS011;41951;49.022;12.066;2022-10-14T12:13:30;26.58;;;15.95;;
56075;SDS011;41951;49.022;12.066;2022-10-14T12:16:16;23.88;;;14.75;;
56075;SDS011;41951;49.022;12.066;2022-10-14T12:18:44;22.42;;;14.27;;
56075;SDS011;41951;49.022;12.066;2022-10-14T12:23:46;20.13;;;13.00;;
56075;SDS011;41951;49.022;12.066;2022-10-14T12:28:44;16.85;;;10.50;;
56075;SDS011;41951;49.022;12.066;2022-10-14T12:36:35;15.95;;;9.63;;
56075;SDS011;41951;49.022;12.066;2022-10-14T12:44:20;18.92;;;8.85;;
56075;SDS011;41951;49.022;12.066;2022-10-14T12:46:48;13.25;;;8.65;;
56075;SDS011;41951;49.022;12.066;2022-10-14T12:49:17;16.48;;;8.02;;
56075;SDS011;41951;49.022;12.066;2022-10-14T12:51:52;12.90;;;7.63;;
56075;SDS011;41951;49.022;12.066;2022-10-14T12:54:19;13.80;;;8.88;;
56075;SDS011;41951;49.022;12.066;2022-10-14T12:56:59;18.02;;;8.00;;
56075;SDS011;41951;49.022;12.066;2022-10-14T12:59:32;14.20;;;8.80;;
56075;SDS011;41951;49.022;12.066;2022-10-14T13:05:00;12.25;;;8.25;;
56075;SDS011;41951;49.022;12.066;2022-10-14T13:07:29;16.65;;;9.10;;
56075;SDS011;41951;49.022;12.066;2022-10-14T13:10:24;15.05;;;9.00;;
56075;SDS011;41951;49.022;12.066;2022-10-14T13:13:48;14.45;;;8.45;;
56075;SDS011;41951;49.022;12.066;2022-10-14T13:42:55;9.45;;;6.93;;
56075;SDS011;41951;49.022;12.066;2022-10-14T13:45:27;12.00;;;7.70;;
56075;SDS011;41951;49.022;12.066;2022-10-14T13:48:03;9.38;;;6.78;;
56075;SDS011;41951;49.022;12.066;2022-10-14T13:50:33;14.98;;;6.95;;
56075;SDS011;41951;49.022;12.066;2022-10-14T13:53:20;12.38;;;6.97;;
56075;SDS011;41951;49.022;12.066;2022-10-14T13:55:47;12.38;;;6.72;;
56075;SDS011;41951;49.022;12.066;2022-10-14T13:58:18;11.43;;;6.80;;
56075;SDS011;41951;49.022;12.066;2022-10-14T14:06:22;10.68;;;6.28;;
56075;SDS011;41951;49.022;12.066;2022-10-14T14:11:21;12.18;;;6.57;;
56075;SDS011;41951;49.022;12.066;2022-10-14T14:13:51;12.98;;;8.25;;
56075;SDS011;41951;49.022;12.066;2022-10-14T14:16:29;15.73;;;9.40;;
56075;SDS011;41951;49.022;12.066;2022-10-14T14:19:06;10.63;;;7.30;;
56075;SDS011;41951;49.022;12.066;2022-10-14T14:21:43;11.38;;;7.80;;
56075;SDS011;41951;49.022;12.066;2022-10-14T14:24:16;11.60;;;6.85;;
56075;SDS011;41951;49.022;12.066;2022-10-14T14:26:44;12.82;;;7.30;;
56075;SDS011;41951;49.022;12.066;2022-10-14T14:29:20;11.13;;;7.65;;
56075;SDS011;41951;49.022;12.066;2022-10-14T14:31:49;14.00;;;8.55;;
56075;SDS011;41951;49.022;12.066;2022-10-14T14:34:16;16.52;;;9.73;;
56075;SDS011;41951;49.022;12.066;2022-10-14T14:36:44;17.88;;;11.52;;
56075;SDS011;41951;49.022;12.066;2022-10-14T14:39:19;16.25;;;7.70;;
56075;SDS011;41951;49.022;12.066;2022-10-14T14:41:54;13.88;;;8.27;;
56075;SDS011;41951;49.022;12.066;2022-10-14T14:44:29;12.70;;;7.07;;
56075;SDS011;41951;49.022;12.066;2022-10-14T14:46:58;12.65;;;7.22;;
56075;SDS011;41951;49.022;12.066;2022-10-14T14:49:30;12.95;;;7.00;;
56075;SDS011;41951;49.022;12.066;2022-10-14T14:51:57;11.38;;;6.95;;
56075;SDS011;41951;49.022;12.066;2022-10-14T14:54:24;13.43;;;7.40;;
56075;SDS011;41951;49.022;12.066;2022-10-14T14:59:37;12.35;;;7.07;;
56075;SDS011;41951;49.022;12.066;2022-10-14T15:02:16;11.88;;;6.97;;
56075;SDS011;41951;49.022;12.066;2022-10-14T15:04:43;13.13;;;7.97;;
56075;SDS011;41951;49.022;12.066;2022-10-14T15:07:15;13.65;;;8.18;;
56075;SDS011;41951;49.022;12.066;2022-10-14T15:09:44;14.27;;;8.60;;
56075;SDS011;41951;49.022;12.066;2022-10-14T15:12:58;14.68;;;9.07;;
56075;SDS011;41951;49.022;12.066;2022-10-14T15:15:27;47.33;;;32.28;;
56075;SDS011;41951;49.022;12.066;2022-10-14T15:21:02;12.30;;;8.70;;
56075;SDS011;41951;49.022;12.066;2022-10-14T15:23:36;11.93;;;8.07;;
56075;SDS011;41951;49.022;12.066;2022-10-14T15:26:02;14.73;;;8.25;;
56075;SDS011;41951;49.022;12.066;2022-10-14T15:28:29;13.10;;;8.35;;
56075;SDS011;41951;49.022;12.066;2022-10-14T15:30:56;11.82;;;8.20;;
56075;SDS011;41951;49.022;12.066;2022-10-14T15:33:23;16.77;;;8.13;;
56075;SDS011;41951;49.022;12.066;2022-10-14T15:35:54;12.40;;;7.85;;
56075;SDS011;41951;49.022;12.066;2022-10-14T15:38:27;13.95;;;8.02;;
56075;SDS011;41951;49.022;12.066;2022-10-14T15:40:53;13.10;;;8.75;;
56075;SDS011;41951;49.022;12.066;2022-10-14T15:43:23;14.43;;;7.97;;
56075;SDS011;41951;49.022;12.066;2022-10-14T15:45:51;15.38;;;8.80;;
56075;SDS011;41951;49.022;12.066;2022-10-14T15:48:36;11.07;;;7.50;;
56075;SDS011;41951;49.022;12.066;2022-10-14T15:51:17;14.57;;;8.13;;
56075;SDS011;41951;49.022;12.066;2022-10-14T15:53:44;11.38;;;7.68;;
56075;SDS011;41951;49.022;12.066;2022-10-14T15:56:10;11.18;;;7.55;;
56075;SDS011;41951;49.022;12.066;2022-10-14T15:58:36;11.20;;;8.18;;
56075;SDS011;41951;49.022;12.066;2022-10-14T16:01:02;27.50;;;16.90;;
56075;SDS011;41951;49.022;12.066;2022-10-14T16:03:30;25.75;;;17.70;;
56075;SDS011;41951;49.022;12.066;2022-10-14T16:05:57;17.60;;;12.52;;
56075;SDS011;41951;49.022;12.066;2022-10-14T16:08:23;19.50;;;11.82;;
56075;SDS011;41951;49.022;12.066;2022-10-14T16:10:49;12.80;;;8.07;;
56075;SDS011;41951;49.022;12.066;2022-10-14T16:13:18;12.68;;;8.23;;
56075;SDS011;41951;49.022;12.066;2022-10-14T16:15:47;11.05;;;7.25;;
56075;SDS011;41951;49.022;12.066;2022-10-14T16:18:23;11.55;;;8.15;;
56075;SDS011;41951;49.022;12.066;2022-10-14T16:20:50;14.95;;;8.55;;
56075;SDS011;41951;49.022;12.066;2022-10-14T16:23:20;12.68;;;8.10;;
56075;SDS011;41951;49.022;12.066;2022-10-14T16:25:48;12.65;;;7.70;;
56075;SDS011;41951;49.022;12.066;2022-10-14T16:28:15;11.98;;;7.78;;
56075;SDS011;41951;49.022;12.066;2022-10-14T16:30:42;10.43;;;7.40;;
56075;SDS011;41951;49.022;12.066;2022-10-14T16:33:12;13.98;;;8.15;;
56075;SDS011;41951;49.022;12.066;2022-10-14T16:35:43;16.55;;;7.90;;
56075;SDS011;41951;49.022;12.066;2022-10-14T16:38:12;14.03;;;7.93;;
56075;SDS011;41951;49.022;12.066;2022-10-14T16:40:38;15.43;;;9.02;;
56075;SDS011;41951;49.022;12.066;2022-10-14T16:43:04;17.38;;;10.27;;
56075;SDS011;41951;49.022;12.066;2022-10-14T16:45:30;18.67;;;10.35;;
56075;SDS011;41951;49.022;12.066;2022-10-14T16:47:56;18.90;;;12.30;;
56075;SDS011;41951;49.022;12.066;2022-10-14T16:50:21;12.50;;;8.63;;
56075;SDS011;41951;49.022;12.066;2022-10-14T16:52:47;13.13;;;8.73;;
56075;SDS011;41951;49.022;12.066;2022-10-14T16:55:31;16.25;;;10.30;;
56075;SDS011;41951;49.022;12.066;2022-10-14T16:57:57;18.30;;;9.98;;